createdAt,value
2022-12-15T00:01:56.944Z,96041.69
2022-12-15T00:04:39.778Z,96049.81
2022-12-15T00:07:25.140Z,96047.03
2022-12-15T00:10:07.962Z,96041.44
2022-12-15T00:12:50.730Z,96038.28
2022-12-15T00:15:33.816Z,96034.78
2022-12-15T00:18:20.371Z,96029.66
2022-12-15T00:21:03.249Z,96033.31
2022-12-15T00:23:48.667Z,96033.69
2022-12-15T00:26:31.632Z,96035.97
2022-12-15T00:29:14.815Z,96032.88
2022-12-15T00:31:57.884Z,96037.66
2022-12-15T00:34:40.700Z,96035.31
2022-12-15T00:37:23.642Z,96028.06
2022-12-15T00:40:04.555Z,96055.75
2022-12-15T00:42:35.101Z,96060.88
2022-12-15T00:45:05.721Z,96057.25
2022-12-15T00:47:34.412Z,96073.06
2022-12-15T00:50:17.216Z,96100.09
2022-12-15T00:52:59.984Z,96089.38
2022-12-15T00:55:45.322Z,96095.97
2022-12-15T00:58:28.107Z,96102.41
2022-12-15T01:01:10.921Z,96111.00
2022-12-15T01:03:53.940Z,96114.75
2022-12-15T01:06:36.918Z,96117.97
2022-12-15T01:09:20.937Z,96109.97
2022-12-15T01:12:06.286Z,96107.19
2022-12-15T01:14:51.941Z,96107.31
2022-12-15T01:17:34.963Z,96116.03
2022-12-15T01:20:20.487Z,96126.63
2022-12-15T01:22:53.307Z,96139.50
2022-12-15T01:25:25.824Z,96164.19
2022-12-15T01:27:59.063Z,96173.88
2022-12-15T01:30:30.355Z,96174.56
2022-12-15T01:33:00.855Z,96162.09
2022-12-15T01:35:31.465Z,96134.06
2022-12-15T01:38:02.125Z,96138.94
2022-12-15T01:40:44.981Z,96132.75
2022-12-15T01:43:20.520Z,96131.38
2022-12-15T01:45:53.013Z,96122.25
2022-12-15T01:48:27.993Z,96120.84
2022-12-15T01:51:05.022Z,96096.63
2022-12-15T01:53:41.108Z,96077.69
2022-12-15T01:56:12.546Z,96060.06
2022-12-15T01:58:47.961Z,96044.25
2022-12-15T02:01:18.806Z,96035.31
2022-12-15T02:03:51.705Z,96027.94
2022-12-15T02:06:24.668Z,96015.94
2022-12-15T02:08:58.531Z,95999.22
2022-12-15T02:11:46.517Z,95982.81
2022-12-15T02:14:28.971Z,95986.22
2022-12-15T02:17:10.335Z,95975.13
2022-12-15T02:20:04.469Z,95957.81
2022-12-15T02:22:50.501Z,95947.34
2022-12-15T02:25:35.309Z,95933.59
2022-12-15T02:28:09.550Z,95933.28
2022-12-15T02:31:13.586Z,95907.91
2022-12-15T02:33:49.835Z,95914.88
2022-12-15T02:36:29.309Z,95909.50
2022-12-15T02:38:59.735Z,95902.13
2022-12-15T02:41:38.455Z,95915.09
2022-12-15T02:44:14.077Z,95929.28
2022-12-15T02:47:00.568Z,95924.97
2022-12-15T02:49:38.691Z,95928.75
2022-12-15T02:52:20.432Z,95949.16
2022-12-15T02:55:12.945Z,95943.34
2022-12-15T02:57:51.552Z,95954.34
2022-12-15T03:00:22.957Z,95964.88
2022-12-15T03:02:58.401Z,95973.78
2022-12-15T03:05:31.272Z,95978.22
2022-12-15T03:08:01.739Z,95970.16
2022-12-15T03:10:32.354Z,95988.63
2022-12-15T03:13:02.892Z,95990.66
2022-12-15T03:15:35.561Z,95992.50
2022-12-15T03:18:09.225Z,95996.13
2022-12-15T03:20:39.820Z,96014.72
2022-12-15T03:23:10.804Z,96027.75
2022-12-15T03:25:41.509Z,96024.72
2022-12-15T03:28:12.252Z,96027.00
2022-12-15T03:30:42.915Z,96042.59
2022-12-15T03:33:16.095Z,96038.72
2022-12-15T03:35:46.593Z,96048.06
2022-12-15T03:38:17.216Z,96054.41
2022-12-15T03:40:48.081Z,96034.63
2022-12-15T03:43:18.914Z,96048.56
2022-12-15T03:45:49.879Z,96033.16
2022-12-15T03:48:23.285Z,96060.28
2022-12-15T03:50:54.209Z,96073.59
2022-12-15T03:53:24.745Z,96080.97
2022-12-15T03:55:55.322Z,96078.94
2022-12-15T03:58:25.839Z,96084.53
2022-12-15T04:00:56.364Z,96095.63
2022-12-15T04:03:30.105Z,96102.00
2022-12-15T04:06:01.145Z,96112.00
2022-12-15T04:08:31.738Z,96131.53
2022-12-15T04:11:02.573Z,96122.00
2022-12-15T04:13:33.576Z,96112.63
2022-12-15T04:16:05.553Z,96129.53
2022-12-15T04:18:38.969Z,96144.44
2022-12-15T04:21:09.632Z,96134.09
2022-12-15T04:23:40.171Z,96139.47
2022-12-15T04:26:22.923Z,96137.84
2022-12-15T04:29:05.876Z,96156.53
2022-12-15T04:31:49.728Z,96174.25
2022-12-15T04:34:37.498Z,96162.25
2022-12-15T04:37:23.005Z,96165.84
2022-12-15T04:40:07.285Z,96185.19
2022-12-15T04:42:51.522Z,96197.81
2022-12-15T04:45:36.939Z,96218.69
2022-12-15T04:48:20.442Z,96252.84
2022-12-15T04:51:05.873Z,96242.22
2022-12-15T04:53:48.644Z,96249.50
2022-12-15T04:56:31.762Z,96244.44
2022-12-15T04:59:15.055Z,96245.50
2022-12-15T05:01:58.472Z,96276.47
2022-12-15T05:04:41.475Z,96277.28
2022-12-15T05:07:28.057Z,96287.13
2022-12-15T05:10:14.964Z,96302.47
2022-12-15T05:12:58.415Z,96306.75
2022-12-15T05:15:41.251Z,96301.34
2022-12-15T05:18:24.198Z,96312.53
2022-12-15T05:21:07.146Z,96311.56
2022-12-15T05:23:52.657Z,96321.91
2022-12-15T05:26:35.514Z,96327.19
2022-12-15T05:29:18.374Z,96348.34
2022-12-15T05:31:55.045Z,96341.97
2022-12-15T05:34:27.884Z,96348.06
2022-12-15T05:36:58.963Z,96357.72
2022-12-15T05:39:32.273Z,96353.91
2022-12-15T05:42:02.965Z,96363.28
2022-12-15T05:44:33.679Z,96365.53
2022-12-15T05:47:05.079Z,96376.56
2022-12-15T05:49:36.435Z,96388.72
2022-12-15T05:52:07.397Z,96380.31
2022-12-15T05:54:40.543Z,96388.72
2022-12-15T05:57:10.995Z,96383.47
2022-12-15T05:59:41.834Z,96389.56
2022-12-15T06:02:12.393Z,96388.59
2022-12-15T06:04:43.040Z,96393.84
2022-12-15T06:07:13.850Z,96413.09
2022-12-15T06:09:47.037Z,96414.88
2022-12-15T06:12:17.571Z,96429.78
2022-12-15T06:14:48.154Z,96432.72
2022-12-15T06:17:20.587Z,96437.97
2022-12-15T06:19:51.213Z,96443.06
2022-12-15T06:22:21.761Z,96445.56
2022-12-15T06:24:54.950Z,96451.53
2022-12-15T06:27:25.593Z,96454.00
2022-12-15T06:29:56.120Z,96460.06
2022-12-15T06:32:26.641Z,96461.59
2022-12-15T06:34:57.689Z,96462.28
2022-12-15T06:37:28.184Z,96470.72
2022-12-15T06:40:01.280Z,96468.78
2022-12-15T06:42:32.113Z,96475.56
2022-12-15T06:45:02.715Z,96478.72
2022-12-15T06:47:34.510Z,96480.25
2022-12-15T06:50:05.084Z,96478.97
2022-12-15T06:52:35.604Z,96484.91
2022-12-15T06:55:09.682Z,96479.53
2022-12-15T06:57:40.094Z,96479.38
2022-12-15T07:00:12.605Z,96491.53
2022-12-15T07:02:49.845Z,96488.25
2022-12-15T07:05:21.821Z,96506.50
2022-12-15T07:07:52.562Z,96501.25
2022-12-15T07:10:25.806Z,96499.44
2022-12-15T07:12:58.873Z,96502.06
2022-12-15T07:15:29.466Z,96496.53
2022-12-15T07:17:59.995Z,96493.63
2022-12-15T07:20:30.477Z,96490.69
2022-12-15T07:23:01.072Z,96484.19
2022-12-15T07:25:35.282Z,96502.31
2022-12-15T07:28:06.858Z,96501.03
2022-12-15T07:30:39.087Z,96506.97
2022-12-15T07:33:09.907Z,96510.16
2022-12-15T07:35:40.730Z,96513.34
2022-12-15T07:38:11.840Z,96503.53
2022-12-15T07:40:45.789Z,96520.34
2022-12-15T07:43:16.731Z,96518.25
2022-12-15T07:45:51.472Z,96507.97
2022-12-15T07:48:23.991Z,96507.41
2022-12-15T07:51:05.121Z,96511.28
2022-12-15T07:53:40.207Z,96509.84
2022-12-15T07:56:13.542Z,96518.81
2022-12-15T07:58:44.501Z,96519.06
2022-12-15T08:01:16.967Z,96515.59
2022-12-15T08:03:48.545Z,96537.97
2022-12-15T08:06:19.289Z,96539.19
2022-12-15T08:08:51.339Z,96537.09
2022-12-15T08:11:26.814Z,96546.50
2022-12-15T08:14:07.890Z,96556.75
2022-12-15T08:16:41.215Z,96567.66
2022-12-15T08:19:15.455Z,96564.44
2022-12-15T08:21:48.634Z,96550.97
2022-12-15T08:24:19.764Z,96565.22
2022-12-15T08:26:53.270Z,96571.66
2022-12-15T08:29:50.226Z,96565.97
2022-12-15T08:32:14.654Z,96569.34
2022-12-15T08:34:47.755Z,96570.28
2022-12-15T08:37:18.635Z,96560.47
2022-12-15T08:39:49.080Z,96547.22
2022-12-15T08:42:22.299Z,96552.28
2022-12-15T08:44:53.128Z,96561.34
2022-12-15T08:47:23.703Z,96567.56
2022-12-15T08:49:54.849Z,96563.66
2022-12-15T08:52:25.412Z,96562.56
2022-12-15T08:54:56.100Z,96554.69
2022-12-15T08:57:29.335Z,96558.38
2022-12-15T08:59:59.940Z,96547.47
2022-12-15T09:02:30.511Z,96541.72
2022-12-15T09:05:01.189Z,96535.97
2022-12-15T09:07:33.546Z,96541.75
2022-12-15T09:10:04.448Z,96531.53
2022-12-15T09:12:37.694Z,96530.06
2022-12-15T09:15:09.750Z,96530.56
2022-12-15T09:17:40.269Z,96526.94
2022-12-15T09:20:16.608Z,96523.81
2022-12-15T09:22:50.359Z,96538.19
2022-12-15T09:25:21.038Z,96535.06
2022-12-15T09:27:54.132Z,96539.69
2022-12-15T09:30:25.066Z,96526.47
2022-12-15T09:32:55.646Z,96539.41
2022-12-15T09:35:28.638Z,96531.78
2022-12-15T09:38:00.474Z,96538.25
2022-12-15T09:40:31.319Z,96537.09
2022-12-15T09:43:33.446Z,96527.84
2022-12-15T09:46:07.801Z,96530.16
2022-12-15T09:48:44.877Z,96530.50
2022-12-15T09:51:20.138Z,96525.53
2022-12-15T09:53:55.599Z,96524.19
2022-12-15T09:56:34.330Z,96531.47
2022-12-15T09:59:19.562Z,96522.69
2022-12-15T10:01:59.169Z,96523.69
2022-12-15T10:04:40.853Z,96542.19
2022-12-15T10:07:19.172Z,96544.34
2022-12-15T10:09:49.760Z,96547.97
2022-12-15T10:12:27.516Z,96536.69
2022-12-15T10:15:10.615Z,96541.34
2022-12-15T10:17:50.181Z,96550.59
2022-12-15T10:20:24.184Z,96544.28
2022-12-15T10:22:57.106Z,96546.94
2022-12-15T10:25:30.929Z,96543.06
2022-12-15T10:28:14.009Z,96538.75
2022-12-15T10:30:55.345Z,96548.97
2022-12-15T10:33:28.759Z,96533.22
2022-12-15T10:35:59.636Z,96541.94
2022-12-15T10:38:38.039Z,96540.44
2022-12-15T10:41:12.021Z,96538.06
2022-12-15T10:43:44.311Z,96546.50
2022-12-15T10:46:22.184Z,96553.28
2022-12-15T10:48:54.793Z,96542.34
2022-12-15T10:51:31.196Z,96538.50
2022-12-15T10:54:13.482Z,96539.16
2022-12-15T10:56:52.606Z,96526.25
2022-12-15T10:59:28.795Z,96547.41
2022-12-15T11:02:27.912Z,96556.19
2022-12-15T11:05:03.143Z,96548.22
2022-12-15T11:07:41.982Z,96535.34
2022-12-15T11:10:20.778Z,96546.88
2022-12-15T11:13:10.678Z,96549.38
2022-12-15T11:15:44.443Z,96541.06
2022-12-15T11:18:41.296Z,96547.84
2022-12-15T11:21:17.220Z,96551.78
2022-12-15T11:23:58.194Z,96536.50
2022-12-15T11:26:41.022Z,96542.31
2022-12-15T11:29:23.946Z,96548.25
2022-12-15T11:31:57.955Z,96551.38
2022-12-15T11:34:39.774Z,96547.38
2022-12-15T11:37:36.311Z,96550.31
2022-12-15T11:40:37.608Z,96548.78
2022-12-15T11:43:34.404Z,96551.72
2022-12-15T11:46:24.406Z,96559.78
2022-12-15T11:49:16.558Z,96558.94
2022-12-15T11:51:56.872Z,96546.94
2022-12-15T11:54:32.545Z,96552.25
2022-12-15T11:57:10.656Z,96547.91
2022-12-15T12:00:09.209Z,96549.81
2022-12-15T12:03:12.443Z,96550.13
2022-12-15T12:06:01.368Z,96553.69
2022-12-15T12:08:51.288Z,96559.28
2022-12-15T12:11:28.247Z,96554.22
2022-12-15T12:14:15.947Z,96557.38
2022-12-15T12:16:56.302Z,96566.63
2022-12-15T12:19:30.730Z,96557.47
2022-12-15T12:22:06.752Z,96559.09
2022-12-15T12:24:44.393Z,96548.13
2022-12-15T12:27:28.185Z,96548.13
2022-12-15T12:30:03.842Z,96556.38
2022-12-15T12:32:47.388Z,96552.88
2022-12-15T12:35:32.913Z,96564.97
2022-12-15T12:38:05.572Z,96565.22
2022-12-15T12:40:51.987Z,96560.22
2022-12-15T12:43:35.260Z,96563.13
2022-12-15T12:46:14.227Z,96574.22
2022-12-15T12:48:49.572Z,96570.53
2022-12-15T12:51:29.845Z,96578.34
2022-12-15T12:54:01.107Z,96582.03
2022-12-15T12:56:42.314Z,96584.69
2022-12-15T12:59:39.478Z,96587.53
2022-12-15T13:02:45.122Z,96599.34
2022-12-15T13:05:34.310Z,96597.03
2022-12-15T13:08:50.921Z,96601.09
2022-12-15T13:12:14.891Z,96612.28
2022-12-15T13:14:57.580Z,96628.75
2022-12-15T13:17:35.705Z,96626.66
2022-12-15T13:20:30.792Z,96631.50
2022-12-15T13:23:31.269Z,96631.22
2022-12-15T13:26:14.361Z,96643.22
2022-12-15T13:28:47.897Z,96648.06
2022-12-15T13:31:45.259Z,96652.09
2022-12-15T13:34:32.309Z,96651.97
2022-12-15T13:37:04.234Z,96653.72
2022-12-15T13:40:03.002Z,96662.72
2022-12-15T13:42:48.268Z,96665.28
2022-12-15T13:45:53.881Z,96660.84
2022-12-15T13:48:38.652Z,96668.34
2022-12-15T13:51:32.571Z,96665.25
2022-12-15T13:54:06.257Z,96662.94
2022-12-15T13:56:52.342Z,96662.47
2022-12-15T13:59:43.769Z,96657.66
2022-12-15T14:02:28.961Z,96661.69
2022-12-15T14:05:17.749Z,96665.84
2022-12-15T14:10:44.657Z,96656.00
2022-12-15T14:13:19.464Z,96667.13
2022-12-15T14:15:54.062Z,96674.84
2022-12-15T14:18:30.955Z,96677.47
2022-12-15T14:21:08.109Z,96678.88
2022-12-15T14:24:03.925Z,96679.03
2022-12-15T14:26:35.527Z,96682.56
2022-12-15T14:29:09.914Z,96691.41
2022-12-15T14:31:41.077Z,96689.88
2022-12-15T14:34:16.376Z,96697.22
2022-12-15T14:36:50.674Z,96692.47
2022-12-15T14:39:26.136Z,96706.09
2022-12-15T14:41:58.309Z,96699.03
2022-12-15T14:44:37.982Z,96696.56
2022-12-15T14:47:11.466Z,96699.00
2022-12-15T14:49:45.539Z,96704.41
2022-12-15T14:52:30.381Z,96698.22
2022-12-15T14:55:03.300Z,96703.19
2022-12-15T14:57:44.487Z,96700.72
2022-12-15T15:00:28.889Z,96700.16
2022-12-15T15:03:05.769Z,96664.75
2022-12-15T15:06:21.686Z,96697.16
2022-12-15T15:08:56.302Z,96717.06
2022-12-15T15:11:31.022Z,96720.03
2022-12-15T15:14:07.518Z,96725.41
2022-12-15T15:16:40.825Z,96707.53
2022-12-15T15:19:19.443Z,96722.03
2022-12-15T15:21:50.854Z,96716.81
2022-12-15T15:24:33.038Z,96720.13
2022-12-15T15:27:26.999Z,96713.66
2022-12-15T15:30:17.696Z,96720.22
2022-12-15T15:32:58.009Z,96707.38
2022-12-15T15:35:33.289Z,96721.56
2022-12-15T15:38:08.377Z,96723.69
2022-12-15T15:40:41.413Z,96716.97
2022-12-15T15:43:14.956Z,96730.78
2022-12-15T15:45:45.578Z,96731.38
2022-12-15T15:48:21.054Z,96730.63
2022-12-15T15:50:51.771Z,96728.72
2022-12-15T15:53:25.527Z,96735.28
2022-12-15T15:55:58.915Z,96739.50
2022-12-15T15:58:30.027Z,96744.19
2022-12-15T16:01:00.837Z,96750.88
2022-12-15T16:03:32.252Z,96752.38
2022-12-15T16:06:02.829Z,96762.84
2022-12-15T16:08:36.860Z,96753.31
2022-12-15T16:11:13.811Z,96752.00
2022-12-15T16:13:44.958Z,96756.47
2022-12-15T16:16:21.824Z,96754.97
2022-12-15T16:18:52.610Z,96754.13
2022-12-15T16:21:25.746Z,96758.63
2022-12-15T16:23:57.395Z,96750.81
2022-12-15T16:26:33.467Z,96747.53
2022-12-15T16:29:04.469Z,96749.78
2022-12-15T16:31:41.449Z,96756.31
2022-12-15T16:34:12.591Z,96759.56
2022-12-15T16:36:44.011Z,96754.53
2022-12-15T16:39:28.057Z,96756.97
2022-12-15T16:42:01.380Z,96770.66
2022-12-15T16:44:32.418Z,96768.78
2022-12-15T16:47:02.943Z,96778.66
2022-12-15T16:49:39.828Z,96779.31
2022-12-15T16:52:21.482Z,96786.53
2022-12-15T16:54:53.053Z,96786.69
2022-12-15T16:57:26.221Z,96787.81
2022-12-15T16:59:56.964Z,96797.28
2022-12-15T17:02:30.513Z,96793.84
2022-12-15T17:05:01.206Z,96797.44
2022-12-15T17:07:32.400Z,96794.97
2022-12-15T17:10:03.170Z,96792.44
2022-12-15T17:12:36.729Z,96802.63
2022-12-15T17:15:18.699Z,96809.72
2022-12-15T17:17:49.289Z,96812.00
2022-12-15T17:20:31.055Z,96817.91
2022-12-15T17:23:05.892Z,96821.75
2022-12-15T17:26:19.538Z,96823.66
2022-12-15T17:28:37.014Z,96828.91
2022-12-15T17:31:07.886Z,96828.41
2022-12-15T17:33:38.543Z,96825.00
2022-12-15T17:36:18.335Z,96830.44
2022-12-15T17:38:49.343Z,96829.91
2022-12-15T17:41:42.818Z,96824.63
2022-12-15T17:44:38.314Z,96829.22
2022-12-15T17:47:11.045Z,96822.13
2022-12-15T17:49:41.839Z,96834.41
2022-12-15T17:52:25.367Z,96832.03
2022-12-15T17:54:56.213Z,96828.44
2022-12-15T17:57:26.984Z,96827.22
2022-12-15T18:00:02.169Z,96822.69
2022-12-15T18:02:37.252Z,96826.44
2022-12-15T18:05:09.613Z,96823.41
2022-12-15T18:07:40.436Z,96827.31
2022-12-15T18:10:24.306Z,96831.72
2022-12-15T18:12:54.957Z,96836.00
2022-12-15T18:15:30.166Z,96832.41
2022-12-15T18:18:02.258Z,96828.25
2022-12-15T18:20:32.951Z,96825.31
2022-12-15T18:23:03.829Z,96824.38
2022-12-15T18:25:34.397Z,96832.88
2022-12-15T18:28:05.338Z,96827.94
2022-12-15T18:30:38.932Z,96825.38
2022-12-15T18:33:12.644Z,96831.50
2022-12-15T18:35:45.387Z,96837.88
2022-12-15T18:38:20.793Z,96839.00
2022-12-15T18:40:52.967Z,96841.38
2022-12-15T18:43:26.037Z,96838.44
2022-12-15T18:45:59.521Z,96843.72
2022-12-15T18:48:31.808Z,96845.38
2022-12-15T18:51:05.053Z,96850.63
2022-12-15T18:53:38.869Z,96846.31
2022-12-15T18:56:10.219Z,96858.09
2022-12-15T18:58:42.654Z,96833.97
2022-12-15T19:01:16.455Z,96846.69
2022-12-15T19:03:47.206Z,96847.09
2022-12-15T19:06:35.229Z,96843.19
2022-12-15T19:09:06.260Z,96845.09
2022-12-15T19:11:36.963Z,96843.69
2022-12-15T19:14:33.773Z,96842.44
2022-12-15T19:17:19.182Z,96844.63
2022-12-15T19:20:01.901Z,96845.31
2022-12-15T19:22:33.951Z,96851.13
2022-12-15T19:25:06.244Z,96844.88
2022-12-15T19:27:36.867Z,96842.09
2022-12-15T19:30:16.800Z,96843.63
2022-12-15T19:32:50.323Z,96837.34
2022-12-15T19:35:20.945Z,96838.72
2022-12-15T19:37:55.327Z,96844.00
2022-12-15T19:40:30.512Z,96840.94
2022-12-15T19:43:04.514Z,96841.59
2022-12-15T19:45:36.008Z,96842.97
2022-12-15T19:48:09.516Z,96838.41
2022-12-15T19:50:40.981Z,96837.56
2022-12-15T19:53:18.945Z,96839.22
2022-12-15T19:55:49.513Z,96835.91
2022-12-15T19:58:28.170Z,96841.72
2022-12-15T20:01:01.183Z,96838.25
2022-12-15T20:03:36.219Z,96826.03
2022-12-15T20:06:13.706Z,96825.75
2022-12-15T20:08:45.967Z,96824.75
2022-12-15T20:11:22.257Z,96821.16
2022-12-15T20:13:53.575Z,96821.16
2022-12-15T20:16:25.013Z,96827.09
2022-12-15T20:18:59.898Z,96826.13
2022-12-15T20:21:34.457Z,96830.41
2022-12-15T20:24:08.938Z,96821.94
2022-12-15T20:26:40.869Z,96825.22
2022-12-15T20:29:23.813Z,96827.94
2022-12-15T20:31:55.700Z,96820.13
2022-12-15T20:34:28.974Z,96826.59
2022-12-15T20:36:59.653Z,96826.88
2022-12-15T20:39:32.560Z,96825.97
2022-12-15T20:42:03.199Z,96831.22
2022-12-15T20:44:33.713Z,96828.41
2022-12-15T20:47:04.301Z,96837.00
2022-12-15T20:49:37.497Z,96835.84
2022-12-15T20:52:08.263Z,96842.53
2022-12-15T20:54:39.897Z,96836.78
2022-12-15T20:57:12.187Z,96832.31
2022-12-15T20:59:43.042Z,96834.91
2022-12-15T21:02:25.256Z,96846.00
2022-12-15T21:04:58.574Z,96845.09
2022-12-15T21:07:29.429Z,96855.31
2022-12-15T21:10:00.025Z,96842.97
2022-12-15T21:12:31.647Z,96842.81
2022-12-15T21:15:02.238Z,96838.44
2022-12-15T21:17:38.684Z,96846.53
2022-12-15T21:20:16.277Z,96844.91
2022-12-15T21:22:46.964Z,96839.25
2022-12-15T21:25:27.110Z,96842.63
2022-12-15T21:27:57.849Z,96830.53
2022-12-15T21:30:28.518Z,96836.69
2022-12-15T21:32:59.106Z,96843.56
2022-12-15T21:35:32.396Z,96845.56
2022-12-15T21:38:03.046Z,96843.06
2022-12-15T21:40:33.780Z,96840.34
2022-12-15T21:43:07.503Z,96828.16
2022-12-15T21:45:38.679Z,96842.47
2022-12-15T21:48:22.045Z,96838.03
2022-12-15T21:50:55.259Z,96841.22
2022-12-15T21:53:26.231Z,96848.28
2022-12-15T21:55:57.990Z,96824.03
2022-12-15T21:58:28.741Z,96837.47
2022-12-15T22:00:59.491Z,96834.97
2022-12-15T22:03:30.227Z,96838.41
2022-12-15T22:06:03.848Z,96837.16
2022-12-15T22:08:35.471Z,96841.88
2022-12-15T22:11:15.508Z,96840.31
2022-12-15T22:13:46.140Z,96838.78
2022-12-15T22:16:17.069Z,96832.66
2022-12-15T22:18:51.711Z,96830.81
2022-12-15T22:21:25.394Z,96824.47
2022-12-15T22:23:56.022Z,96822.38
2022-12-15T22:26:30.025Z,96822.78
2022-12-15T22:29:03.752Z,96822.78
2022-12-15T22:31:34.366Z,96816.56
2022-12-15T22:34:05.045Z,96811.28
2022-12-15T22:36:38.244Z,96802.25
2022-12-15T22:39:11.271Z,96799.44
2022-12-15T22:41:43.950Z,96800.28
2022-12-15T22:44:20.401Z,96791.00
2022-12-15T22:46:52.489Z,96795.84
2022-12-15T22:49:28.160Z,96786.97
2022-12-15T22:52:01.384Z,96789.75
2022-12-15T22:54:33.992Z,96786.97
2022-12-15T22:57:06.888Z,96786.13
2022-12-15T22:59:41.489Z,96789.75
2022-12-15T23:02:12.976Z,96790.59
2022-12-15T23:04:44.029Z,96786.25
2022-12-15T23:07:17.177Z,96781.00
2022-12-15T23:09:47.799Z,96777.53
2022-12-15T23:12:16.312Z,96774.91
2022-12-15T23:14:59.032Z,96767.81
2022-12-15T23:17:29.487Z,96767.81
2022-12-15T23:19:59.923Z,96756.00
2022-12-15T23:22:32.999Z,96755.66
2022-12-15T23:25:04.442Z,96748.84
2022-12-15T23:27:35.062Z,96743.44
2022-12-15T23:30:05.994Z,96746.25
2022-12-15T23:32:38.899Z,96725.66
2022-12-15T23:35:10.899Z,96725.34
2022-12-15T23:37:44.143Z,96719.50
2022-12-15T23:40:21.536Z,96724.69
2022-12-15T23:42:53.818Z,96721.25
2022-12-15T23:45:25.693Z,96716.97
2022-12-15T23:47:56.272Z,96727.03
2022-12-15T23:50:26.861Z,96720.25
2022-12-15T23:53:00.115Z,96733.13
2022-12-15T23:55:30.619Z,96734.59
2022-12-15T23:58:01.166Z,96722.16
